createdAt,value
2023-05-14T00:02:02.707Z,2.83
2023-05-14T00:04:34.585Z,3.30
2023-05-14T00:07:02.453Z,3.05
2023-05-14T00:09:30.301Z,3.20
2023-05-14T00:11:57.864Z,3.40
2023-05-14T00:14:25.577Z,3.47
2023-05-14T00:16:53.139Z,2.85
2023-05-14T00:19:20.697Z,2.55
2023-05-14T00:21:49.659Z,2.65
2023-05-14T00:24:17.184Z,2.50
2023-05-14T00:26:45.936Z,2.70
2023-05-14T00:29:13.433Z,2.58
2023-05-14T00:31:41.033Z,2.78
2023-05-14T00:34:08.606Z,3.00
2023-05-14T00:36:36.276Z,3.47
2023-05-14T00:39:05.397Z,3.38
2023-05-14T00:41:33.224Z,3.22
2023-05-14T00:44:00.905Z,3.40
2023-05-14T00:46:28.723Z,3.38
2023-05-14T00:48:56.928Z,3.00
2023-05-14T00:51:24.907Z,2.60
2023-05-14T00:53:53.832Z,3.20
2023-05-14T00:56:22.909Z,3.00
2023-05-14T00:58:50.470Z,3.72
2023-05-14T01:01:18.165Z,3.83
2023-05-14T01:03:46.376Z,3.10
2023-05-14T01:06:19.085Z,2.55
2023-05-14T01:08:54.387Z,2.53
2023-05-14T01:11:30.199Z,2.15
2023-05-14T01:14:04.287Z,2.30
2023-05-14T01:16:35.114Z,2.97
2023-05-14T01:19:03.629Z,3.10
2023-05-14T01:21:44.365Z,3.58
2023-05-14T01:24:11.795Z,3.30
2023-05-14T01:26:39.240Z,3.50
2023-05-14T01:29:14.654Z,3.35
2023-05-14T01:31:44.554Z,3.88
2023-05-14T01:34:14.911Z,4.43
2023-05-14T01:36:44.782Z,3.90
2023-05-14T01:39:15.081Z,4.33
2023-05-14T01:41:43.652Z,4.07
2023-05-14T01:44:12.027Z,4.70
2023-05-14T01:46:39.712Z,4.65
2023-05-14T01:49:07.188Z,5.63
2023-05-14T01:51:34.829Z,5.60
2023-05-14T01:54:03.596Z,4.00
2023-05-14T01:56:31.003Z,2.63
2023-05-14T01:58:58.428Z,2.13
2023-05-14T02:01:26.089Z,2.05
2023-05-14T02:03:53.583Z,2.33
2023-05-14T02:06:21.041Z,2.33
2023-05-14T02:08:48.431Z,2.60
2023-05-14T02:11:17.288Z,2.65
2023-05-14T02:13:44.891Z,3.83
2023-05-14T02:16:12.399Z,3.17
2023-05-14T02:18:39.917Z,3.42
2023-05-14T02:21:07.396Z,3.53
2023-05-14T02:23:41.507Z,4.10
2023-05-14T02:26:10.516Z,4.28
2023-05-14T02:28:39.275Z,3.83
2023-05-14T02:31:06.775Z,4.05
2023-05-14T02:33:34.267Z,3.95
2023-05-14T02:36:01.660Z,3.80
2023-05-14T02:38:29.024Z,4.00
2023-05-14T02:40:56.453Z,4.23
2023-05-14T02:43:23.924Z,4.40
2023-05-14T02:45:52.682Z,4.78
2023-05-14T02:48:20.110Z,4.35
2023-05-14T02:50:48.291Z,3.80
2023-05-14T02:53:15.689Z,2.57
2023-05-14T02:55:43.112Z,2.70
2023-05-14T02:58:10.956Z,2.47
2023-05-14T03:00:38.496Z,2.83
2023-05-14T03:03:07.733Z,5.07
2023-05-14T03:05:35.662Z,5.90
2023-05-14T03:08:03.118Z,4.38
2023-05-14T03:10:31.042Z,3.70
2023-05-14T03:12:58.495Z,3.63
2023-05-14T03:15:26.000Z,4.47
2023-05-14T03:17:53.460Z,4.40
2023-05-14T03:20:22.569Z,3.28
2023-05-14T03:22:50.208Z,3.55
2023-05-14T03:25:17.748Z,3.35
2023-05-14T03:27:45.256Z,3.75
2023-05-14T03:30:13.314Z,3.93
2023-05-14T03:32:41.191Z,3.38
2023-05-14T03:35:09.411Z,4.85
2023-05-14T03:37:38.174Z,3.85
2023-05-14T03:40:07.041Z,3.53
2023-05-14T03:42:34.483Z,3.57
2023-05-14T03:45:01.880Z,3.28
2023-05-14T03:47:29.321Z,3.35
2023-05-14T03:49:57.699Z,3.20
2023-05-14T03:52:25.141Z,3.83
2023-05-14T03:54:54.009Z,4.07
2023-05-14T03:57:21.445Z,3.50
2023-05-14T03:59:48.865Z,4.13
2023-05-14T04:02:16.573Z,4.13
2023-05-14T04:04:44.129Z,2.92
2023-05-14T04:07:11.616Z,3.47
2023-05-14T04:09:39.039Z,3.42
2023-05-14T04:12:09.170Z,4.07
2023-05-14T04:14:36.664Z,3.67
2023-05-14T04:17:04.313Z,4.00
2023-05-14T04:19:31.766Z,3.67
2023-05-14T04:21:59.252Z,3.65
2023-05-14T04:24:26.745Z,3.30
2023-05-14T04:26:54.195Z,2.85
2023-05-14T04:29:23.208Z,3.50
2023-05-14T04:31:51.058Z,3.33
2023-05-14T04:34:18.549Z,3.22
2023-05-14T04:36:46.528Z,3.88
2023-05-14T04:39:14.051Z,4.78
2023-05-14T04:41:42.553Z,6.30
2023-05-14T04:44:09.984Z,5.97
2023-05-14T04:46:38.787Z,4.90
2023-05-14T04:49:06.212Z,4.88
2023-05-14T04:51:33.636Z,7.15
2023-05-14T04:54:01.115Z,7.65
2023-05-14T04:56:28.546Z,9.07
2023-05-14T04:58:56.070Z,4.47
2023-05-14T05:01:24.054Z,3.85
2023-05-14T05:03:53.001Z,3.75
2023-05-14T05:06:20.420Z,2.80
2023-05-14T05:08:47.792Z,3.60
2023-05-14T05:11:15.256Z,3.47
2023-05-14T05:13:42.684Z,4.00
2023-05-14T05:16:10.148Z,3.20
2023-05-14T05:18:37.599Z,3.42
2023-05-14T05:21:06.745Z,3.27
2023-05-14T05:23:34.182Z,3.70
2023-05-14T05:26:01.588Z,4.22
2023-05-14T05:28:29.021Z,4.07
2023-05-14T05:30:56.508Z,5.35
2023-05-14T05:33:24.007Z,5.40
2023-05-14T05:35:52.321Z,5.00
2023-05-14T05:38:21.046Z,5.45
2023-05-14T05:40:48.805Z,4.75
2023-05-14T05:43:16.610Z,5.78
2023-05-14T05:45:44.015Z,6.20
2023-05-14T05:48:11.437Z,6.60
2023-05-14T05:50:38.866Z,5.68
2023-05-14T05:53:06.464Z,5.78
2023-05-14T05:55:35.270Z,5.90
2023-05-14T05:58:02.767Z,6.80
2023-05-14T06:00:31.124Z,5.20
2023-05-14T06:02:58.522Z,5.10
2023-05-14T06:05:26.105Z,4.45
2023-05-14T06:07:53.863Z,4.93
2023-05-14T06:10:21.470Z,5.17
2023-05-14T06:12:50.311Z,4.75
2023-05-14T06:15:17.806Z,5.03
2023-05-14T06:17:45.798Z,4.93
2023-05-14T06:20:13.859Z,5.35
2023-05-14T06:22:41.324Z,5.70
2023-05-14T06:25:09.755Z,7.95
2023-05-14T06:27:37.235Z,5.22
2023-05-14T06:30:07.465Z,5.60
2023-05-14T06:32:34.932Z,6.88
2023-05-14T06:35:02.393Z,6.50
2023-05-14T06:37:29.785Z,8.55
2023-05-14T06:39:58.021Z,7.38
2023-05-14T06:42:26.247Z,8.60
2023-05-14T06:44:54.462Z,9.63
2023-05-14T06:47:23.275Z,8.67
2023-05-14T06:49:50.721Z,9.02
2023-05-14T06:52:18.141Z,8.85
2023-05-14T06:54:45.537Z,7.93
2023-05-14T06:57:12.985Z,7.85
2023-05-14T06:59:40.383Z,9.40
2023-05-14T07:02:07.998Z,6.72
2023-05-14T07:04:37.266Z,8.07
2023-05-14T07:07:06.603Z,8.35
2023-05-14T07:09:34.070Z,7.90
2023-05-14T07:12:01.472Z,7.70
2023-05-14T07:14:28.904Z,7.32
2023-05-14T07:16:57.142Z,7.25
2023-05-14T07:19:24.649Z,7.32
2023-05-14T07:21:53.369Z,5.32
2023-05-14T07:24:21.132Z,6.70
2023-05-14T07:26:48.574Z,7.40
2023-05-14T07:29:16.102Z,7.22
2023-05-14T07:31:43.760Z,6.70
2023-05-14T07:34:12.615Z,5.97
2023-05-14T07:36:41.036Z,6.10
2023-05-14T07:39:09.788Z,6.57
2023-05-14T07:41:37.236Z,6.30
2023-05-14T07:44:04.923Z,6.55
2023-05-14T07:46:32.347Z,6.78
2023-05-14T07:48:59.758Z,5.33
2023-05-14T07:51:28.275Z,5.45
2023-05-14T07:53:56.377Z,4.07
2023-05-14T07:56:25.547Z,5.78
2023-05-14T07:58:52.934Z,4.70
2023-05-14T08:01:20.679Z,5.30
2023-05-14T08:03:48.184Z,5.43
2023-05-14T08:06:15.792Z,5.50
2023-05-14T08:08:43.210Z,4.43
2023-05-14T08:11:10.853Z,4.35
2023-05-14T08:13:39.718Z,3.77
2023-05-14T08:16:08.671Z,3.25
2023-05-14T08:18:36.158Z,2.65
2023-05-14T08:21:03.912Z,3.30
2023-05-14T08:23:31.515Z,2.15
2023-05-14T08:25:59.123Z,3.33
2023-05-14T08:28:26.695Z,4.18
2023-05-14T08:30:55.860Z,3.70
2023-05-14T08:33:23.342Z,4.35
2023-05-14T08:35:51.594Z,3.78
2023-05-14T08:38:19.013Z,3.97
2023-05-14T08:40:49.328Z,3.00
2023-05-14T08:43:21.814Z,2.42
2023-05-14T08:45:54.076Z,2.15
2023-05-14T08:48:24.438Z,3.05
2023-05-14T08:50:52.259Z,3.93
2023-05-14T08:53:19.855Z,3.72
2023-05-14T08:55:49.012Z,4.25
2023-05-14T08:58:17.118Z,3.70
2023-05-14T09:00:44.834Z,4.30
2023-05-14T09:03:13.503Z,4.00
2023-05-14T09:05:42.594Z,4.20
2023-05-14T09:08:10.230Z,4.97
2023-05-14T09:10:40.178Z,4.07
2023-05-14T09:13:10.014Z,3.65
2023-05-14T09:15:38.358Z,2.10
2023-05-14T09:18:06.568Z,3.78
2023-05-14T09:20:34.614Z,2.38
2023-05-14T09:23:03.539Z,3.72
2023-05-14T09:25:32.880Z,2.40
2023-05-14T09:28:00.873Z,2.70
2023-05-14T09:30:28.458Z,2.53
2023-05-14T09:32:56.308Z,3.60
2023-05-14T09:35:26.067Z,3.83
2023-05-14T09:37:55.381Z,2.20
2023-05-14T09:40:25.410Z,2.50
2023-05-14T09:42:53.323Z,3.35
2023-05-14T09:45:21.176Z,3.03
2023-05-14T09:47:49.558Z,1.90
2023-05-14T09:50:17.265Z,3.13
2023-05-14T09:52:44.874Z,1.40
2023-05-14T09:55:12.411Z,1.90
2023-05-14T09:57:41.461Z,1.15
2023-05-14T10:00:10.353Z,1.58
2023-05-14T10:02:40.920Z,1.33
2023-05-14T10:05:09.611Z,1.30
2023-05-14T10:07:41.990Z,1.77
2023-05-14T10:10:17.508Z,1.48
2023-05-14T10:12:52.578Z,1.55
2023-05-14T10:15:24.937Z,1.80
2023-05-14T10:17:59.875Z,2.00
2023-05-14T10:20:28.656Z,2.10
2023-05-14T10:22:57.207Z,1.38
2023-05-14T10:25:25.213Z,1.65
2023-05-14T10:27:55.008Z,1.70
2023-05-14T10:30:24.025Z,1.40
2023-05-14T10:33:07.550Z,1.85
2023-05-14T10:35:57.389Z,1.63
2023-05-14T10:38:27.721Z,1.55
2023-05-14T10:41:00.810Z,1.70
2023-05-14T10:43:31.079Z,2.63
2023-05-14T10:45:59.657Z,2.33
2023-05-14T10:48:27.723Z,2.22
2023-05-14T10:50:57.428Z,2.40
2023-05-14T10:53:33.655Z,2.72
2023-05-14T10:56:04.434Z,2.60
2023-05-14T10:58:36.063Z,2.30
2023-05-14T11:01:03.669Z,1.90
2023-05-14T11:03:31.976Z,2.53
2023-05-14T11:06:04.198Z,2.13
2023-05-14T11:08:32.090Z,2.93
2023-05-14T11:10:59.634Z,2.30
2023-05-14T11:13:27.154Z,2.10
2023-05-14T11:15:56.798Z,2.80
2023-05-14T11:18:28.574Z,2.92
2023-05-14T11:20:59.246Z,3.00
2023-05-14T11:23:27.233Z,2.70
2023-05-14T11:25:55.414Z,2.65
2023-05-14T11:28:22.949Z,2.38
2023-05-14T11:30:51.009Z,2.67
2023-05-14T11:33:20.639Z,1.90
2023-05-14T11:35:48.532Z,2.10
2023-05-14T11:38:17.054Z,2.85
2023-05-14T11:40:45.327Z,2.60
2023-05-14T11:43:12.775Z,2.50
2023-05-14T11:45:40.352Z,2.97
2023-05-14T11:48:15.672Z,2.15
2023-05-14T11:50:48.365Z,2.13
2023-05-14T11:53:18.827Z,2.10
2023-05-14T11:55:46.816Z,3.15
2023-05-14T11:58:15.730Z,2.57
2023-05-14T12:00:45.432Z,3.15
2023-05-14T12:03:13.372Z,1.88
2023-05-14T12:05:40.991Z,2.05
2023-05-14T12:08:22.198Z,3.25
2023-05-14T12:10:49.747Z,3.70
2023-05-14T12:13:17.932Z,3.15
2023-05-14T12:15:47.236Z,3.30
2023-05-14T12:18:23.815Z,3.20
2023-05-14T12:20:52.350Z,2.38
2023-05-14T12:23:27.551Z,3.30
2023-05-14T12:25:54.994Z,3.00
2023-05-14T12:28:24.196Z,2.50
2023-05-14T12:30:56.900Z,2.80
2023-05-14T12:33:26.320Z,3.60
2023-05-14T12:35:58.850Z,3.37
2023-05-14T12:38:29.424Z,3.08
2023-05-14T12:40:56.807Z,2.47
2023-05-14T12:43:24.195Z,3.20
2023-05-14T12:45:51.589Z,3.45
2023-05-14T12:48:18.976Z,3.57
2023-05-14T12:50:48.406Z,4.30
2023-05-14T12:53:16.286Z,4.00
2023-05-14T12:55:45.139Z,4.80
2023-05-14T12:58:12.576Z,6.32
2023-05-14T13:00:39.972Z,5.70
2023-05-14T13:03:07.446Z,5.15
2023-05-14T13:05:35.043Z,6.47
2023-05-14T13:08:03.782Z,4.85
2023-05-14T13:10:31.173Z,5.60
2023-05-14T13:12:59.927Z,5.70
2023-05-14T13:15:27.429Z,5.53
2023-05-14T13:17:54.943Z,4.60
2023-05-14T13:20:23.493Z,4.15
2023-05-14T13:22:51.025Z,5.78
2023-05-14T13:25:18.608Z,6.63
2023-05-14T13:27:46.021Z,6.30
2023-05-14T13:30:15.242Z,6.45
2023-05-14T13:32:42.621Z,6.47
2023-05-14T13:35:10.434Z,7.85
2023-05-14T13:37:37.985Z,5.70
2023-05-14T13:40:08.222Z,9.18
2023-05-14T13:42:35.924Z,8.23
2023-05-14T13:45:03.763Z,8.57
2023-05-14T13:47:32.726Z,9.35
2023-05-14T13:50:00.659Z,6.87
2023-05-14T13:52:28.083Z,3.33
2023-05-14T13:54:56.348Z,4.78
2023-05-14T13:57:23.988Z,2.80
2023-05-14T13:59:51.545Z,3.50
2023-05-14T14:02:18.980Z,2.53
2023-05-14T14:04:49.220Z,2.50
2023-05-14T14:07:16.655Z,3.67
2023-05-14T14:09:45.084Z,3.97
2023-05-14T14:12:12.518Z,3.33
2023-05-14T14:14:40.059Z,3.30
2023-05-14T14:17:08.876Z,3.83
2023-05-14T14:19:36.313Z,3.38
2023-05-14T14:22:05.339Z,2.97
2023-05-14T14:24:32.891Z,2.80
2023-05-14T14:27:02.115Z,2.67
2023-05-14T14:29:30.957Z,2.80
2023-05-14T14:31:58.439Z,2.55
2023-05-14T14:34:26.277Z,2.40
2023-05-14T14:36:53.705Z,2.47
2023-05-14T14:39:25.105Z,2.23
2023-05-14T14:41:52.579Z,2.53
2023-05-14T14:44:20.065Z,4.40
2023-05-14T14:46:48.388Z,5.20
2023-05-14T14:49:15.787Z,4.65
2023-05-14T14:51:43.233Z,5.07
2023-05-14T14:54:10.693Z,5.40
2023-05-14T14:56:40.040Z,5.00
2023-05-14T14:59:07.444Z,5.03
2023-05-14T15:01:34.897Z,5.75
2023-05-14T15:04:02.388Z,5.60
2023-05-14T15:06:29.788Z,6.30
2023-05-14T15:08:57.178Z,5.82
2023-05-14T15:11:24.641Z,6.22
2023-05-14T15:13:53.430Z,5.53
2023-05-14T15:16:20.965Z,5.83
2023-05-14T15:18:48.496Z,5.90
2023-05-14T15:21:16.052Z,5.75
2023-05-14T15:23:43.489Z,6.05
2023-05-14T15:26:10.909Z,6.10
2023-05-14T15:28:38.325Z,5.23
2023-05-14T15:31:07.256Z,6.30
2023-05-14T15:33:34.774Z,6.10
2023-05-14T15:36:02.225Z,6.10
2023-05-14T15:38:29.654Z,6.28
2023-05-14T15:40:57.073Z,6.20
2023-05-14T15:43:24.698Z,6.47
2023-05-14T15:45:52.106Z,5.95
2023-05-14T15:48:20.860Z,5.60
2023-05-14T15:50:49.765Z,5.68
2023-05-14T15:53:17.408Z,6.03
2023-05-14T15:55:45.412Z,5.43
2023-05-14T15:58:13.241Z,4.70
2023-05-14T16:00:40.702Z,4.32
2023-05-14T16:03:08.269Z,3.80
2023-05-14T16:05:37.226Z,5.33
2023-05-14T16:08:04.633Z,4.68
2023-05-14T16:10:32.035Z,4.18
2023-05-14T16:12:59.487Z,4.65
2023-05-14T16:15:26.924Z,6.55
2023-05-14T16:17:54.382Z,5.07
2023-05-14T16:20:22.343Z,5.22
2023-05-14T16:22:51.261Z,5.60
2023-05-14T16:25:19.203Z,4.97
2023-05-14T16:27:46.740Z,6.72
2023-05-14T16:30:14.429Z,5.80
2023-05-14T16:32:42.167Z,6.60
2023-05-14T16:35:10.697Z,6.75
2023-05-14T16:37:38.144Z,6.97
2023-05-14T16:40:11.018Z,8.43
2023-05-14T16:42:38.557Z,8.00
2023-05-14T16:45:06.801Z,7.78
2023-05-14T16:47:34.263Z,8.48
2023-05-14T16:50:01.744Z,7.97
2023-05-14T16:52:29.344Z,7.18
2023-05-14T16:54:56.766Z,6.60
2023-05-14T16:57:26.332Z,9.85
2023-05-14T16:59:53.975Z,6.93
2023-05-14T17:02:21.454Z,5.10
2023-05-14T17:04:48.979Z,5.22
2023-05-14T17:07:16.518Z,5.13
2023-05-14T17:09:43.911Z,5.30
2023-05-14T17:12:13.019Z,5.20
2023-05-14T17:14:41.819Z,5.30
2023-05-14T17:17:09.206Z,5.25
2023-05-14T17:19:36.617Z,4.90
2023-05-14T17:22:05.746Z,5.45
2023-05-14T17:24:34.522Z,5.50
2023-05-14T17:27:01.986Z,5.32
2023-05-14T17:29:29.485Z,5.25
2023-05-14T17:31:58.613Z,5.20
2023-05-14T17:34:26.635Z,5.68
2023-05-14T17:36:54.240Z,5.47
2023-05-14T17:39:21.766Z,5.35
2023-05-14T17:41:49.455Z,5.47
2023-05-14T17:44:17.118Z,5.63
2023-05-14T17:46:45.736Z,5.82
2023-05-14T17:49:14.867Z,5.65
2023-05-14T17:51:42.512Z,5.70
2023-05-14T17:54:10.067Z,5.80
2023-05-14T17:56:37.720Z,5.33
2023-05-14T17:59:05.304Z,5.63
2023-05-14T18:01:32.939Z,5.57
2023-05-14T18:04:00.680Z,5.43
2023-05-14T18:06:29.729Z,5.47
2023-05-14T18:08:57.449Z,5.33
2023-05-14T18:11:25.137Z,5.50
2023-05-14T18:13:52.656Z,5.18
2023-05-14T18:16:20.331Z,5.45
2023-05-14T18:18:48.019Z,6.00
2023-05-14T18:21:16.130Z,6.13
2023-05-14T18:23:45.120Z,6.78
2023-05-14T18:26:12.874Z,5.95
2023-05-14T18:28:43.600Z,10.85
2023-05-14T18:31:11.268Z,7.88
2023-05-14T18:33:38.960Z,8.90
2023-05-14T18:36:07.038Z,8.75
2023-05-14T18:38:34.649Z,7.00
2023-05-14T18:41:03.559Z,7.03
2023-05-14T18:43:33.223Z,7.38
2023-05-14T18:46:00.987Z,4.80
2023-05-14T18:48:28.991Z,4.72
2023-05-14T18:50:56.833Z,4.72
2023-05-14T18:53:24.576Z,4.40
2023-05-14T18:55:52.522Z,4.32
2023-05-14T18:58:21.774Z,4.37
2023-05-14T19:00:50.413Z,4.18
2023-05-14T19:03:19.682Z,3.90
2023-05-14T19:05:47.471Z,4.47
2023-05-14T19:08:15.568Z,3.80
2023-05-14T19:10:43.256Z,3.67
2023-05-14T19:13:11.533Z,4.68
2023-05-14T19:15:40.560Z,4.40
2023-05-14T19:18:08.278Z,4.30
2023-05-14T19:20:35.858Z,4.45
2023-05-14T19:23:05.012Z,3.93
2023-05-14T19:25:33.625Z,4.15
2023-05-14T19:28:03.716Z,4.63
2023-05-14T19:30:31.431Z,4.00
2023-05-14T19:33:00.464Z,4.22
2023-05-14T19:35:30.120Z,4.13
2023-05-14T19:37:57.679Z,4.20
2023-05-14T19:40:25.384Z,4.60
2023-05-14T19:42:53.058Z,5.75
2023-05-14T19:45:20.745Z,7.95
2023-05-14T19:47:50.686Z,6.03
2023-05-14T19:50:19.823Z,4.70
2023-05-14T19:52:50.210Z,3.92
2023-05-14T19:55:17.894Z,3.90
2023-05-14T19:57:47.551Z,4.50
2023-05-14T20:00:16.932Z,4.40
2023-05-14T20:02:44.680Z,3.78
2023-05-14T20:05:12.357Z,3.63
2023-05-14T20:07:42.116Z,4.13
2023-05-14T20:10:10.545Z,5.43
2023-05-14T20:12:37.993Z,8.33
2023-05-14T20:15:06.292Z,7.68
2023-05-14T20:17:33.710Z,8.02
2023-05-14T20:20:01.315Z,6.25
2023-05-14T20:22:28.704Z,6.55
2023-05-14T20:24:57.515Z,5.20
2023-05-14T20:27:25.008Z,4.10
2023-05-14T20:29:53.919Z,4.00
2023-05-14T20:32:24.659Z,3.95
2023-05-14T20:34:52.375Z,4.38
2023-05-14T20:37:20.157Z,4.50
2023-05-14T20:39:47.620Z,3.97
2023-05-14T20:42:16.504Z,4.90
2023-05-14T20:44:44.412Z,4.15
2023-05-14T20:47:16.188Z,4.95
2023-05-14T20:49:43.586Z,4.80
2023-05-14T20:52:10.966Z,4.40
2023-05-14T20:54:38.361Z,4.07
2023-05-14T20:57:06.283Z,4.65
2023-05-14T20:59:35.058Z,4.78
2023-05-14T21:02:02.553Z,4.67
2023-05-14T21:04:30.124Z,4.78
2023-05-14T21:06:57.795Z,4.28
2023-05-14T21:09:27.038Z,4.18
2023-05-14T21:11:54.747Z,3.80
2023-05-14T21:14:22.269Z,3.80
2023-05-14T21:16:51.020Z,3.58
2023-05-14T21:19:18.515Z,3.33
2023-05-14T21:21:47.192Z,3.90
2023-05-14T21:24:16.576Z,3.80
2023-05-14T21:26:44.176Z,2.83
2023-05-14T21:29:11.939Z,3.60
2023-05-14T21:31:39.402Z,3.75
2023-05-14T21:34:08.178Z,3.70
2023-05-14T21:36:35.661Z,3.75
2023-05-14T21:39:03.412Z,3.53
2023-05-14T21:41:31.287Z,3.40
2023-05-14T21:43:58.733Z,3.13
2023-05-14T21:46:26.596Z,3.70
2023-05-14T21:48:54.146Z,2.90
2023-05-14T21:51:23.096Z,3.20
2023-05-14T21:53:50.500Z,3.10
2023-05-14T21:56:17.952Z,3.20
2023-05-14T21:58:45.613Z,3.80
2023-05-14T22:01:13.057Z,3.70
2023-05-14T22:03:40.483Z,3.63
2023-05-14T22:06:08.121Z,3.75
2023-05-14T22:08:36.886Z,4.07
2023-05-14T22:11:04.625Z,3.58
2023-05-14T22:13:32.054Z,3.50
2023-05-14T22:16:09.318Z,3.40
2023-05-14T22:18:40.790Z,3.28
2023-05-14T22:21:08.202Z,3.47
2023-05-14T22:23:37.400Z,3.63
2023-05-14T22:26:05.531Z,4.20
2023-05-14T22:28:32.971Z,3.83
2023-05-14T22:31:00.769Z,4.22
2023-05-14T22:33:28.288Z,4.65
2023-05-14T22:35:55.736Z,4.07
2023-05-14T22:38:23.148Z,4.22
2023-05-14T22:40:51.892Z,4.27
2023-05-14T22:43:19.314Z,4.18
2023-05-14T22:45:46.766Z,4.55
2023-05-14T22:48:14.170Z,4.22
2023-05-14T22:50:41.571Z,4.03
2023-05-14T22:53:09.021Z,3.97
2023-05-14T22:55:36.484Z,3.92
2023-05-14T22:58:05.492Z,4.32
2023-05-14T23:00:32.937Z,3.88
2023-05-14T23:03:00.411Z,4.15
2023-05-14T23:05:27.846Z,4.07
2023-05-14T23:07:55.900Z,4.10
2023-05-14T23:10:23.309Z,4.72
2023-05-14T23:12:50.727Z,4.90
2023-05-14T23:15:19.511Z,5.10
2023-05-14T23:17:47.114Z,5.10
2023-05-14T23:20:14.826Z,5.80
2023-05-14T23:22:42.218Z,5.45
2023-05-14T23:25:10.421Z,5.55
2023-05-14T23:27:37.842Z,5.47
2023-05-14T23:30:06.112Z,5.53
2023-05-14T23:32:34.933Z,5.63
2023-05-14T23:35:02.454Z,5.85
2023-05-14T23:37:29.987Z,5.78
2023-05-14T23:39:57.507Z,5.97
2023-05-14T23:42:24.972Z,6.90
2023-05-14T23:44:52.385Z,7.78
2023-05-14T23:47:19.850Z,8.18
2023-05-14T23:49:48.630Z,8.70
2023-05-14T23:52:16.024Z,9.45
2023-05-14T23:54:43.440Z,8.33
2023-05-14T23:57:12.345Z,8.52
2023-05-14T23:59:41.104Z,8.15
